sensor_id;sensor_type;location;lat;lon;timestamp;pressure;altitude;pressure_sealevel;temperature;humidity
63556;BME280;49700;48.072;7.800;2023-02-16T00:00:44;100683.38;;;0.42;75.41
63556;BME280;49700;48.072;7.800;2023-02-16T00:03:14;100685.94;;;0.46;75.54
63556;BME280;49700;48.072;7.800;2023-02-16T00:05:40;100685.91;;;0.50;75.49
63556;BME280;49700;48.072;7.800;2023-02-16T00:08:16;100676.47;;;0.49;75.28
63556;BME280;49700;48.072;7.800;2023-02-16T00:10:42;100686.78;;;0.51;75.27
63556;BME280;49700;48.072;7.800;2023-02-16T00:13:30;100682.47;;;0.51;75.27
63556;BME280;49700;48.072;7.800;2023-02-16T00:16:23;100681.66;;;0.44;75.09
63556;BME280;49700;48.072;7.800;2023-02-16T00:18:49;100679.06;;;0.40;75.23
63556;BME280;49700;48.072;7.800;2023-02-16T00:21:16;100681.69;;;0.38;75.27
63556;BME280;49700;48.072;7.800;2023-02-16T00:23:46;100685.13;;;0.39;75.63
63556;BME280;49700;48.072;7.800;2023-02-16T00:26:23;100684.22;;;0.43;75.48
63556;BME280;49700;48.072;7.800;2023-02-16T00:28:54;100680.78;;;0.47;75.33
63556;BME280;49700;48.072;7.800;2023-02-16T00:31:26;100681.66;;;0.44;74.99
63556;BME280;49700;48.072;7.800;2023-02-16T00:33:57;100683.41;;;0.38;75.04
63556;BME280;49700;48.072;7.800;2023-02-16T00:36:26;100675.66;;;0.32;75.29
63556;BME280;49700;48.072;7.800;2023-02-16T00:38:52;100676.56;;;0.28;75.42
63556;BME280;49700;48.072;7.800;2023-02-16T00:41:23;100676.56;;;0.28;75.59
63556;BME280;49700;48.072;7.800;2023-02-16T00:44:17;100664.53;;;0.22;75.43
63556;BME280;49700;48.072;7.800;2023-02-16T00:46:54;100675.72;;;0.22;75.73
63556;BME280;49700;48.072;7.800;2023-02-16T00:49:32;100671.41;;;0.28;75.64
63556;BME280;49700;48.072;7.800;2023-02-16T00:51:58;100669.66;;;0.31;75.50
63556;BME280;49700;48.072;7.800;2023-02-16T00:54:27;100659.28;;;0.34;75.59
63556;BME280;49700;48.072;7.800;2023-02-16T00:56:59;100661.88;;;0.34;75.51
63556;BME280;49700;48.072;7.800;2023-02-16T00:59:26;100668.78;;;0.34;75.37
63556;BME280;49700;48.072;7.800;2023-02-16T01:01:54;100674.78;;;0.37;75.40
63556;BME280;49700;48.072;7.800;2023-02-16T01:04:23;100671.31;;;0.41;75.51
63556;BME280;49700;48.072;7.800;2023-02-16T01:06:49;100667.84;;;0.46;75.41
63556;BME280;49700;48.072;7.800;2023-02-16T01:09:36;100664.41;;;0.45;75.28
63556;BME280;49700;48.072;7.800;2023-02-16T01:12:20;100673.03;;;0.42;75.32
63556;BME280;49700;48.072;7.800;2023-02-16T01:14:50;100656.66;;;0.42;75.33
63556;BME280;49700;48.072;7.800;2023-02-16T01:17:16;100659.25;;;0.42;75.29
63556;BME280;49700;48.072;7.800;2023-02-16T01:19:44;100662.69;;;0.44;75.31
63556;BME280;49700;48.072;7.800;2023-02-16T01:22:09;100654.91;;;0.47;74.95
63556;BME280;49700;48.072;7.800;2023-02-16T01:24:35;100658.38;;;0.46;75.17
63556;BME280;49700;48.072;7.800;2023-02-16T01:27:01;100656.69;;;0.43;75.16
63556;BME280;49700;48.072;7.800;2023-02-16T01:29:26;100667.00;;;0.42;75.20
63556;BME280;49700;48.072;7.800;2023-02-16T01:31:52;100667.91;;;0.32;74.72
63556;BME280;49700;48.072;7.800;2023-02-16T01:34:17;100674.88;;;0.19;74.73
63556;BME280;49700;48.072;7.800;2023-02-16T01:36:45;100680.09;;;0.08;74.91
63556;BME280;49700;48.072;7.800;2023-02-16T01:39:17;100674.09;;;0.00;75.46
63556;BME280;49700;48.072;7.800;2023-02-16T01:44:36;100665.50;;;-0.10;75.50
63556;BME280;49700;48.072;7.800;2023-02-16T01:49:31;100664.66;;;-0.19;75.37
63556;BME280;49700;48.072;7.800;2023-02-16T01:57:02;100658.63;;;-0.15;75.45
63556;BME280;49700;48.072;7.800;2023-02-16T01:59:40;100663.78;;;-0.12;75.43
63556;BME280;49700;48.072;7.800;2023-02-16T02:02:26;100662.91;;;-0.10;75.47
63556;BME280;49700;48.072;7.800;2023-02-16T02:13:20;100655.19;;;-0.13;75.53
63556;BME280;49700;48.072;7.800;2023-02-16T02:15:46;100656.03;;;-0.14;75.48
63556;BME280;49700;48.072;7.800;2023-02-16T02:18:13;100648.28;;;-0.14;75.58
63556;BME280;49700;48.072;7.800;2023-02-16T02:23:56;100650.88;;;-0.08;75.65
63556;BME280;49700;48.072;7.800;2023-02-16T02:32:16;100644.81;;;-0.07;75.45
63556;BME280;49700;48.072;7.800;2023-02-16T02:37:41;100643.94;;;0.02;75.38
63556;BME280;49700;48.072;7.800;2023-02-16T02:43:12;100646.53;;;-0.04;75.28
63556;BME280;49700;48.072;7.800;2023-02-16T02:45:47;100635.38;;;-0.09;75.14
63556;BME280;49700;48.072;7.800;2023-02-16T02:48:14;100637.97;;;-0.12;75.56
63556;BME280;49700;48.072;7.800;2023-02-16T02:50:43;100629.34;;;-0.14;75.50
63556;BME280;49700;48.072;7.800;2023-02-16T02:53:29;100641.44;;;-0.13;75.69
63556;BME280;49700;48.072;7.800;2023-02-16T02:55:58;100644.00;;;-0.10;75.75
63556;BME280;49700;48.072;7.800;2023-02-16T02:58:43;100635.38;;;-0.08;75.71
63556;BME280;49700;48.072;7.800;2023-02-16T03:01:30;100641.38;;;-0.04;75.67
63556;BME280;49700;48.072;7.800;2023-02-16T03:04:00;100630.19;;;-0.02;75.39
63556;BME280;49700;48.072;7.800;2023-02-16T03:06:29;100634.47;;;0.01;75.32
63556;BME280;49700;48.072;7.800;2023-02-16T03:09:13;100629.31;;;-0.01;75.27
63556;BME280;49700;48.072;7.800;2023-02-16T03:11:40;100637.06;;;-0.02;75.54
63556;BME280;49700;48.072;7.800;2023-02-16T03:17:12;100631.91;;;-0.05;75.34
63556;BME280;49700;48.072;7.800;2023-02-16T03:20:06;100627.63;;;-0.09;75.52
63556;BME280;49700;48.072;7.800;2023-02-16T03:22:52;100638.81;;;-0.09;75.74
63556;BME280;49700;48.072;7.800;2023-02-16T03:25:37;100632.78;;;-0.08;75.44
63556;BME280;49700;48.072;7.800;2023-02-16T03:28:24;100637.09;;;-0.11;75.45
63556;BME280;49700;48.072;7.800;2023-02-16T03:31:11;100639.69;;;-0.14;75.52
63556;BME280;49700;48.072;7.800;2023-02-16T03:33:40;100637.13;;;-0.13;75.52
63556;BME280;49700;48.072;7.800;2023-02-16T03:36:07;100637.97;;;-0.12;75.49
63556;BME280;49700;48.072;7.800;2023-02-16T03:38:33;100633.69;;;-0.13;75.37
63556;BME280;49700;48.072;7.800;2023-02-16T03:40:58;100639.69;;;-0.14;75.55
63556;BME280;49700;48.072;7.800;2023-02-16T03:43:25;100638.84;;;-0.13;75.63
63556;BME280;49700;48.072;7.800;2023-02-16T03:45:51;100634.53;;;-0.13;75.48
63556;BME280;49700;48.072;7.800;2023-02-16T03:48:17;100634.53;;;-0.14;75.39
63556;BME280;49700;48.072;7.800;2023-02-16T03:50:43;100637.97;;;-0.17;75.54
63556;BME280;49700;48.072;7.800;2023-02-16T03:53:09;100639.69;;;-0.17;75.62
63556;BME280;49700;48.072;7.800;2023-02-16T03:55:43;100649.16;;;-0.15;75.70
63556;BME280;49700;48.072;7.800;2023-02-16T03:58:10;100639.69;;;-0.14;75.57
63556;BME280;49700;48.072;7.800;2023-02-16T04:00:37;100640.56;;;-0.15;75.66
63556;BME280;49700;48.072;7.800;2023-02-16T04:03:04;100642.28;;;-0.14;75.78
63556;BME280;49700;48.072;7.800;2023-02-16T04:05:35;100645.69;;;-0.14;75.42
63556;BME280;49700;48.072;7.800;2023-02-16T04:08:01;100644.84;;;-0.13;75.70
63556;BME280;49700;48.072;7.800;2023-02-16T04:10:27;100650.00;;;-0.11;75.74
63556;BME280;49700;48.072;7.800;2023-02-16T04:12:53;100652.59;;;-0.10;75.53
63556;BME280;49700;48.072;7.800;2023-02-16T04:15:21;100653.47;;;-0.12;75.46
63556;BME280;49700;48.072;7.800;2023-02-16T04:17:47;100653.47;;;-0.12;75.38
63556;BME280;49700;48.072;7.800;2023-02-16T04:20:16;100662.09;;;-0.13;75.50
63556;BME280;49700;48.072;7.800;2023-02-16T04:22:45;100657.78;;;-0.13;75.55
63556;BME280;49700;48.072;7.800;2023-02-16T04:25:15;100652.59;;;-0.17;75.58
63556;BME280;49700;48.072;7.800;2023-02-16T04:27:41;100649.16;;;-0.19;75.47
63556;BME280;49700;48.072;7.800;2023-02-16T04:30:10;100641.44;;;-0.23;75.58
63556;BME280;49700;48.072;7.800;2023-02-16T04:32:36;100645.72;;;-0.25;75.53
63556;BME280;49700;48.072;7.800;2023-02-16T04:35:02;100653.50;;;-0.28;75.75
63556;BME280;49700;48.072;7.800;2023-02-16T04:37:27;100656.94;;;-0.27;76.08
63556;BME280;49700;48.072;7.800;2023-02-16T04:39:53;100655.22;;;-0.27;75.73
63556;BME280;49700;48.072;7.800;2023-02-16T04:42:18;100662.94;;;-0.25;75.77
63556;BME280;49700;48.072;7.800;2023-02-16T04:44:44;100658.66;;;-0.25;75.70
63556;BME280;49700;48.072;7.800;2023-02-16T04:47:09;100656.94;;;-0.27;75.62
63556;BME280;49700;48.072;7.800;2023-02-16T04:49:35;100656.94;;;-0.29;75.77
63556;BME280;49700;48.072;7.800;2023-02-16T04:52:00;100656.94;;;-0.29;75.86
63556;BME280;49700;48.072;7.800;2023-02-16T04:54:29;100658.66;;;-0.31;75.89
63556;BME280;49700;48.072;7.800;2023-02-16T04:56:57;100653.50;;;-0.31;75.71
63556;BME280;49700;48.072;7.800;2023-02-16T04:59:23;100663.84;;;-0.31;76.02
63556;BME280;49700;48.072;7.800;2023-02-16T05:01:48;100671.56;;;-0.31;75.69
63556;BME280;49700;48.072;7.800;2023-02-16T05:04:14;100671.59;;;-0.32;75.80
63556;BME280;49700;48.072;7.800;2023-02-16T05:06:41;100661.25;;;-0.34;75.75
63556;BME280;49700;48.072;7.800;2023-02-16T05:09:06;100652.66;;;-0.36;75.98
63556;BME280;49700;48.072;7.800;2023-02-16T05:11:32;100654.38;;;-0.35;76.19
63556;BME280;49700;48.072;7.800;2023-02-16T05:14:27;100648.34;;;-0.34;76.11
63556;BME280;49700;48.072;7.800;2023-02-16T05:17:22;100650.06;;;-0.33;76.28
63556;BME280;49700;48.072;7.800;2023-02-16T05:19:51;100655.22;;;-0.33;75.92
63556;BME280;49700;48.072;7.800;2023-02-16T05:22:17;100652.66;;;-0.34;76.02
63556;BME280;49700;48.072;7.800;2023-02-16T05:24:43;100663.00;;;-0.34;75.95
63556;BME280;49700;48.072;7.800;2023-02-16T05:27:20;100666.44;;;-0.34;76.10
63556;BME280;49700;48.072;7.800;2023-02-16T05:29:46;100661.25;;;-0.34;75.95
63556;BME280;49700;48.072;7.800;2023-02-16T05:32:12;100657.81;;;-0.31;76.01
63556;BME280;49700;48.072;7.800;2023-02-16T05:34:37;100657.81;;;-0.31;75.99
63556;BME280;49700;48.072;7.800;2023-02-16T05:37:03;100661.25;;;-0.31;75.92
63556;BME280;49700;48.072;7.800;2023-02-16T05:39:28;100669.84;;;-0.30;76.12
63556;BME280;49700;48.072;7.800;2023-02-16T05:41:54;100662.97;;;-0.31;75.81
63556;BME280;49700;48.072;7.800;2023-02-16T05:44:19;100661.25;;;-0.34;76.15
63556;BME280;49700;48.072;7.800;2023-02-16T05:46:44;100669.00;;;-0.34;76.00
63556;BME280;49700;48.072;7.800;2023-02-16T05:49:14;100671.56;;;-0.35;76.19
63556;BME280;49700;48.072;7.800;2023-02-16T05:51:39;100669.88;;;-0.36;75.94
63556;BME280;49700;48.072;7.800;2023-02-16T05:54:05;100664.69;;;-0.38;75.78
63556;BME280;49700;48.072;7.800;2023-02-16T05:56:30;100669.00;;;-0.38;76.01
63556;BME280;49700;48.072;7.800;2023-02-16T05:58:59;100673.34;;;-0.40;76.11
63556;BME280;49700;48.072;7.800;2023-02-16T06:01:26;100677.63;;;-0.44;75.97
63556;BME280;49700;48.072;7.800;2023-02-16T06:03:52;100669.91;;;-0.46;76.05
63556;BME280;49700;48.072;7.800;2023-02-16T06:06:17;100678.47;;;-0.47;76.21
63556;BME280;49700;48.072;7.800;2023-02-16T06:08:43;100677.63;;;-0.47;76.07
63556;BME280;49700;48.072;7.800;2023-02-16T06:11:08;100684.53;;;-0.48;76.04
63556;BME280;49700;48.072;7.800;2023-02-16T06:13:54;100684.53;;;-0.48;76.10
63556;BME280;49700;48.072;7.800;2023-02-16T06:16:25;100688.81;;;-0.48;75.83
63556;BME280;49700;48.072;7.800;2023-02-16T06:18:52;100693.13;;;-0.50;76.08
63556;BME280;49700;48.072;7.800;2023-02-16T06:21:18;100694.84;;;-0.49;76.22
63556;BME280;49700;48.072;7.800;2023-02-16T06:23:43;100701.72;;;-0.47;76.10
63556;BME280;49700;48.072;7.800;2023-02-16T06:26:08;100706.03;;;-0.46;75.81
63556;BME280;49700;48.072;7.800;2023-02-16T06:28:34;100706.03;;;-0.46;75.93
63556;BME280;49700;48.072;7.800;2023-02-16T06:30:59;100694.84;;;-0.45;76.03
63556;BME280;49700;48.072;7.800;2023-02-16T06:33:25;100701.72;;;-0.47;76.13
63556;BME280;49700;48.072;7.800;2023-02-16T06:35:50;100698.28;;;-0.47;75.83
63556;BME280;49700;48.072;7.800;2023-02-16T06:38:15;100693.13;;;-0.50;76.10
63556;BME280;49700;48.072;7.800;2023-02-16T06:40:41;100689.66;;;-0.49;75.87
63556;BME280;49700;48.072;7.800;2023-02-16T06:43:06;100698.28;;;-0.49;75.92
63556;BME280;49700;48.072;7.800;2023-02-16T06:45:32;100700.84;;;-0.47;76.17
63556;BME280;49700;48.072;7.800;2023-02-16T06:47:57;100691.41;;;-0.45;76.10
63556;BME280;49700;48.072;7.800;2023-02-16T06:50:23;100691.41;;;-0.45;75.99
63556;BME280;49700;48.072;7.800;2023-02-16T06:52:48;100692.28;;;-0.43;76.33
63556;BME280;49700;48.072;7.800;2023-02-16T06:55:14;100687.94;;;-0.44;76.14
63556;BME280;49700;48.072;7.800;2023-02-16T06:57:39;100698.25;;;-0.38;76.24
63556;BME280;49700;48.072;7.800;2023-02-16T07:00:05;100705.16;;;-0.34;76.03
63556;BME280;49700;48.072;7.800;2023-02-16T07:02:32;100705.13;;;-0.31;76.10
63556;BME280;49700;48.072;7.800;2023-02-16T07:04:57;100706.84;;;-0.25;75.93
63556;BME280;49700;48.072;7.800;2023-02-16T07:07:23;100709.44;;;-0.20;76.12
63556;BME280;49700;48.072;7.800;2023-02-16T07:09:49;100702.53;;;-0.15;76.20
63556;BME280;49700;48.072;7.800;2023-02-16T07:12:14;100714.59;;;-0.13;76.07
63556;BME280;49700;48.072;7.800;2023-02-16T07:14:40;100724.91;;;-0.10;75.46
63556;BME280;49700;48.072;7.800;2023-02-16T07:17:05;100721.44;;;-0.06;75.75
63556;BME280;49700;48.072;7.800;2023-02-16T07:19:31;100725.72;;;-0.03;75.72
63556;BME280;49700;48.072;7.800;2023-02-16T07:21:58;100719.72;;;0.01;75.70
63556;BME280;49700;48.072;7.800;2023-02-16T07:24:24;100728.31;;;0.06;75.80
63556;BME280;49700;48.072;7.800;2023-02-16T07:26:49;100720.56;;;0.09;75.30
63556;BME280;49700;48.072;7.800;2023-02-16T07:29:15;100728.28;;;0.14;75.44
63556;BME280;49700;48.072;7.800;2023-02-16T07:31:40;100733.44;;;0.18;75.22
63556;BME280;49700;48.072;7.800;2023-02-16T07:34:05;100731.72;;;0.22;75.29
63556;BME280;49700;48.072;7.800;2023-02-16T07:36:31;100734.28;;;0.28;75.09
63556;BME280;49700;48.072;7.800;2023-02-16T07:38:56;100741.13;;;0.34;75.12
63556;BME280;49700;48.072;7.800;2023-02-16T07:41:22;100737.69;;;0.41;75.14
63556;BME280;49700;48.072;7.800;2023-02-16T07:43:47;100742.78;;;0.49;75.09
63556;BME280;49700;48.072;7.800;2023-02-16T07:46:12;100737.59;;;0.58;74.91
63556;BME280;49700;48.072;7.800;2023-02-16T07:48:38;100738.41;;;0.64;74.93
63556;BME280;49700;48.072;7.800;2023-02-16T07:51:03;100733.19;;;0.72;74.60
63556;BME280;49700;48.072;7.800;2023-02-16T07:53:29;100734.03;;;0.80;74.68
63556;BME280;49700;48.072;7.800;2023-02-16T07:55:54;100732.25;;;0.90;74.83
63556;BME280;49700;48.072;7.800;2023-02-16T07:58:20;100733.03;;;1.00;74.75
63556;BME280;49700;48.072;7.800;2023-02-16T08:00:56;100731.25;;;1.09;74.67
63556;BME280;49700;48.072;7.800;2023-02-16T08:03:29;100725.16;;;1.20;74.61
63556;BME280;49700;48.072;7.800;2023-02-16T08:05:54;100731.97;;;1.30;74.55
63556;BME280;49700;48.072;7.800;2023-02-16T08:08:20;100724.13;;;1.41;74.33
63556;BME280;49700;48.072;7.800;2023-02-16T08:10:45;100726.63;;;1.51;74.38
63556;BME280;49700;48.072;7.800;2023-02-16T08:13:11;100717.03;;;1.61;74.17
63556;BME280;49700;48.072;7.800;2023-02-16T08:15:36;100716.09;;;1.73;74.06
63556;BME280;49700;48.072;7.800;2023-02-16T08:18:01;100718.50;;;1.88;74.41
63556;BME280;49700;48.072;7.800;2023-02-16T08:20:27;100719.19;;;2.04;74.48
63556;BME280;49700;48.072;7.800;2023-02-16T08:22:53;100716.41;;;2.22;74.08
63556;BME280;49700;48.072;7.800;2023-02-16T08:25:18;100719.63;;;2.41;74.20
63556;BME280;49700;48.072;7.800;2023-02-16T08:27:44;100718.50;;;2.62;73.94
63556;BME280;49700;48.072;7.800;2023-02-16T08:30:09;100712.22;;;2.79;73.68
63556;BME280;49700;48.072;7.800;2023-02-16T08:32:38;100720.63;;;2.96;73.39
63556;BME280;49700;48.072;7.800;2023-02-16T08:35:06;100715.16;;;3.16;73.25
63556;BME280;49700;48.072;7.800;2023-02-16T08:37:32;100707.09;;;3.33;73.22
63556;BME280;49700;48.072;7.800;2023-02-16T08:39:57;100702.56;;;3.46;73.44
63556;BME280;49700;48.072;7.800;2023-02-16T08:42:25;100707.59;;;3.55;72.82
63556;BME280;49700;48.072;7.800;2023-02-16T08:44:51;100709.19;;;3.62;72.79
63556;BME280;49700;48.072;7.800;2023-02-16T08:47:17;100707.38;;;3.67;72.77
63556;BME280;49700;48.072;7.800;2023-02-16T08:49:44;100701.63;;;3.98;73.00
63556;BME280;49700;48.072;7.800;2023-02-16T08:52:10;100702.16;;;4.96;72.03
63556;BME280;49700;48.072;7.800;2023-02-16T08:54:36;100699.53;;;6.32;69.38
63556;BME280;49700;48.072;7.800;2023-02-16T08:57:03;100691.81;;;7.68;66.17
63556;BME280;49700;48.072;7.800;2023-02-16T08:59:28;100695.47;;;8.83;63.65
63556;BME280;49700;48.072;7.800;2023-02-16T09:01:54;100686.53;;;9.94;61.33
63556;BME280;49700;48.072;7.800;2023-02-16T09:04:19;100694.56;;;11.06;58.79
63556;BME280;49700;48.072;7.800;2023-02-16T09:06:46;100688.84;;;12.20;56.67
63556;BME280;49700;48.072;7.800;2023-02-16T09:09:12;100685.50;;;13.13;54.56
63556;BME280;49700;48.072;7.800;2023-02-16T09:11:38;100683.47;;;13.92;52.77
63556;BME280;49700;48.072;7.800;2023-02-16T09:14:04;100677.53;;;15.02;48.70
63556;BME280;49700;48.072;7.800;2023-02-16T09:16:30;100669.03;;;15.77;47.35
63556;BME280;49700;48.072;7.800;2023-02-16T09:19:02;100669.44;;;16.47;45.39
63556;BME280;49700;48.072;7.800;2023-02-16T09:21:29;100668.00;;;17.04;44.11
63556;BME280;49700;48.072;7.800;2023-02-16T09:24:00;100669.97;;;17.48;42.54
63556;BME280;49700;48.072;7.800;2023-02-16T09:26:27;100666.22;;;17.86;41.80
63556;BME280;49700;48.072;7.800;2023-02-16T09:28:55;100672.53;;;18.19;40.77
63556;BME280;49700;48.072;7.800;2023-02-16T09:31:24;100670.38;;;18.24;40.08
63556;BME280;49700;48.072;7.800;2023-02-16T09:34:03;100665.78;;;18.38;38.15
63556;BME280;49700;48.072;7.800;2023-02-16T09:36:30;100661.53;;;18.35;37.93
63556;BME280;49700;48.072;7.800;2023-02-16T09:38:56;100671.19;;;18.58;37.68
63556;BME280;49700;48.072;7.800;2023-02-16T09:41:49;100667.53;;;18.93;36.90
63556;BME280;49700;48.072;7.800;2023-02-16T09:46:59;100647.69;;;19.72;35.42
63556;BME280;49700;48.072;7.800;2023-02-16T09:49:35;100648.00;;;19.78;35.12
63556;BME280;49700;48.072;7.800;2023-02-16T09:54:55;100649.56;;;19.39;35.65
63556;BME280;49700;48.072;7.800;2023-02-16T10:03:16;100659.19;;;17.39;36.47
63556;BME280;49700;48.072;7.800;2023-02-16T10:05:48;100658.31;;;16.79;37.55
63556;BME280;49700;48.072;7.800;2023-02-16T10:08:31;100662.44;;;16.33;38.25
63556;BME280;49700;48.072;7.800;2023-02-16T10:11:04;100661.41;;;15.85;39.10
63556;BME280;49700;48.072;7.800;2023-02-16T10:13:54;100667.25;;;15.37;40.06
63556;BME280;49700;48.072;7.800;2023-02-16T10:16:27;100657.97;;;15.04;40.75
63556;BME280;49700;48.072;7.800;2023-02-16T10:18:55;100658.69;;;14.79;40.98
63556;BME280;49700;48.072;7.800;2023-02-16T10:21:24;100657.78;;;14.52;41.64
63556;BME280;49700;48.072;7.800;2023-02-16T10:23:57;100660.66;;;14.34;41.65
63556;BME280;49700;48.072;7.800;2023-02-16T10:26:43;100654.91;;;14.13;42.31
63556;BME280;49700;48.072;7.800;2023-02-16T10:29:15;100658.38;;;14.00;42.22
63556;BME280;49700;48.072;7.800;2023-02-16T10:42:34;100642.53;;;13.85;41.40
63556;BME280;49700;48.072;7.800;2023-02-16T10:45:23;100641.66;;;13.85;41.49
63556;BME280;49700;48.072;7.800;2023-02-16T10:47:51;100630.84;;;13.89;41.72
63556;BME280;49700;48.072;7.800;2023-02-16T10:50:25;100639.72;;;13.88;41.49
63556;BME280;49700;48.072;7.800;2023-02-16T10:52:56;100630.63;;;13.92;41.00
63556;BME280;49700;48.072;7.800;2023-02-16T10:55:22;100636.50;;;13.98;40.87
63556;BME280;49700;48.072;7.800;2023-02-16T10:57:56;100633.47;;;14.04;40.57
63556;BME280;49700;48.072;7.800;2023-02-16T11:03:11;100617.63;;;14.18;39.93
63556;BME280;49700;48.072;7.800;2023-02-16T11:05:39;100622.31;;;14.27;39.88
63556;BME280;49700;48.072;7.800;2023-02-16T11:08:06;100615.78;;;14.33;40.03
63556;BME280;49700;48.072;7.800;2023-02-16T11:10:49;100614.34;;;14.42;39.34
63556;BME280;49700;48.072;7.800;2023-02-16T11:13:30;100616.91;;;14.43;39.25
63556;BME280;49700;48.072;7.800;2023-02-16T11:16:00;100619.91;;;14.51;39.36
63556;BME280;49700;48.072;7.800;2023-02-16T11:18:33;100612.19;;;14.63;38.54
63556;BME280;49700;48.072;7.800;2023-02-16T11:21:01;100610.28;;;14.65;38.27
63556;BME280;49700;48.072;7.800;2023-02-16T11:23:35;100604.16;;;14.64;38.41
63556;BME280;49700;48.072;7.800;2023-02-16T11:28:36;100596.56;;;14.72;37.98
63556;BME280;49700;48.072;7.800;2023-02-16T11:31:39;100591.09;;;14.75;37.73
63556;BME280;49700;48.072;7.800;2023-02-16T11:34:11;100585.38;;;14.81;37.39
63556;BME280;49700;48.072;7.800;2023-02-16T11:36:38;100587.44;;;14.91;37.45
63556;BME280;49700;48.072;7.800;2023-02-16T11:41:34;100578.06;;;15.12;36.49
63556;BME280;49700;48.072;7.800;2023-02-16T11:44:01;100575.09;;;15.17;36.06
63556;BME280;49700;48.072;7.800;2023-02-16T11:46:28;100570.66;;;15.17;35.89
63556;BME280;49700;48.072;7.800;2023-02-16T11:49:28;100561.03;;;15.16;35.87
63556;BME280;49700;48.072;7.800;2023-02-16T11:51:55;100557.94;;;15.22;35.91
63556;BME280;49700;48.072;7.800;2023-02-16T11:54:21;100564.63;;;15.28;35.57
63556;BME280;49700;48.072;7.800;2023-02-16T11:57:06;100556.50;;;15.31;35.33
63556;BME280;49700;48.072;7.800;2023-02-16T11:59:36;100553.94;;;15.30;35.41
63556;BME280;49700;48.072;7.800;2023-02-16T12:04:55;100553.00;;;15.43;34.95
63556;BME280;49700;48.072;7.800;2023-02-16T12:10:31;100533.22;;;15.75;33.78
63556;BME280;49700;48.072;7.800;2023-02-16T12:13:16;100533.41;;;15.84;33.27
63556;BME280;49700;48.072;7.800;2023-02-16T12:16:34;100533.47;;;15.96;33.17
63556;BME280;49700;48.072;7.800;2023-02-16T12:21:42;100510.84;;;16.15;32.73
63556;BME280;49700;48.072;7.800;2023-02-16T12:24:19;100522.31;;;16.16;32.74
63556;BME280;49700;48.072;7.800;2023-02-16T12:26:55;100525.28;;;16.11;32.60
63556;BME280;49700;48.072;7.800;2023-02-16T12:40:46;100519.97;;;16.11;32.74
63556;BME280;49700;48.072;7.800;2023-02-16T12:45:49;100519.25;;;16.09;32.52
63556;BME280;49700;48.072;7.800;2023-02-16T12:51:09;100518.63;;;15.93;32.36
63556;BME280;49700;48.072;7.800;2023-02-16T12:54:11;100524.94;;;15.79;32.24
63556;BME280;49700;48.072;7.800;2023-02-16T12:56:46;100521.13;;;15.70;32.57
63556;BME280;49700;48.072;7.800;2023-02-16T12:59:25;100513.09;;;15.72;32.59
63556;BME280;49700;48.072;7.800;2023-02-16T13:01:54;100514.91;;;15.72;32.78
63556;BME280;49700;48.072;7.800;2023-02-16T13:04:43;100514.69;;;15.75;33.16
63556;BME280;49700;48.072;7.800;2023-02-16T13:07:20;100516.13;;;15.79;33.33
63556;BME280;49700;48.072;7.800;2023-02-16T13:10:00;100504.25;;;15.84;33.64
63556;BME280;49700;48.072;7.800;2023-02-16T13:12:29;100496.72;;;15.91;33.79
63556;BME280;49700;48.072;7.800;2023-02-16T13:15:20;100493.53;;;15.99;33.75
63556;BME280;49700;48.072;7.800;2023-02-16T13:18:01;100495.59;;;16.06;33.70
63556;BME280;49700;48.072;7.800;2023-02-16T13:20:27;100495.19;;;16.12;33.74
63556;BME280;49700;48.072;7.800;2023-02-16T13:26:06;100477.94;;;16.07;33.85
63556;BME280;49700;48.072;7.800;2023-02-16T13:31:24;100481.69;;;15.91;34.21
63556;BME280;49700;48.072;7.800;2023-02-16T13:34:04;100473.88;;;15.77;34.18
63556;BME280;49700;48.072;7.800;2023-02-16T13:36:53;100480.00;;;15.65;34.26
63556;BME280;49700;48.072;7.800;2023-02-16T13:39:39;100475.56;;;15.53;34.60
63556;BME280;49700;48.072;7.800;2023-02-16T13:45:26;100481.81;;;15.39;35.05
63556;BME280;49700;48.072;7.800;2023-02-16T13:47:53;100474.84;;;15.38;35.30
63556;BME280;49700;48.072;7.800;2023-02-16T13:52:46;100481.94;;;15.37;35.39
63556;BME280;49700;48.072;7.800;2023-02-16T14:02:58;100480.44;;;15.59;35.57
63556;BME280;49700;48.072;7.800;2023-02-16T14:05:37;100489.22;;;15.59;35.73
63556;BME280;49700;48.072;7.800;2023-02-16T14:08:12;100474.09;;;15.61;35.80
63556;BME280;49700;48.072;7.800;2023-02-16T14:16:25;100465.72;;;15.55;35.88
63556;BME280;49700;48.072;7.800;2023-02-16T14:18:59;100459.56;;;15.54;35.97
63556;BME280;49700;48.072;7.800;2023-02-16T14:23:59;100454.59;;;15.49;36.21
63556;BME280;49700;48.072;7.800;2023-02-16T14:26:26;100453.75;;;15.49;36.26
63556;BME280;49700;48.072;7.800;2023-02-16T14:29:05;100453.22;;;15.44;36.21
63556;BME280;49700;48.072;7.800;2023-02-16T14:31:42;100456.09;;;15.41;36.30
63556;BME280;49700;48.072;7.800;2023-02-16T14:34:16;100462.38;;;15.40;36.37
63556;BME280;49700;48.072;7.800;2023-02-16T14:37:24;100457.16;;;15.38;36.63
63556;BME280;49700;48.072;7.800;2023-02-16T14:39:52;100459.81;;;15.38;36.59
63556;BME280;49700;48.072;7.800;2023-02-16T14:42:30;100458.13;;;15.37;36.54
63556;BME280;49700;48.072;7.800;2023-02-16T14:50:30;100465.22;;;15.37;36.71
63556;BME280;49700;48.072;7.800;2023-02-16T14:53:16;100463.50;;;15.36;36.96
63556;BME280;49700;48.072;7.800;2023-02-16T14:56:21;100461.84;;;15.35;36.87
63556;BME280;49700;48.072;7.800;2023-02-16T14:59:01;100457.59;;;15.32;37.04
63556;BME280;49700;48.072;7.800;2023-02-16T15:01:27;100457.69;;;15.31;37.49
63556;BME280;49700;48.072;7.800;2023-02-16T15:03:54;100454.41;;;15.27;37.38
63556;BME280;49700;48.072;7.800;2023-02-16T15:06:37;100452.09;;;15.22;37.68
63556;BME280;49700;48.072;7.800;2023-02-16T15:09:13;100440.25;;;15.15;37.59
63556;BME280;49700;48.072;7.800;2023-02-16T15:11:48;100448.72;;;15.08;37.33
63556;BME280;49700;48.072;7.800;2023-02-16T15:14:36;100453.78;;;14.98;37.37
63556;BME280;49700;48.072;7.800;2023-02-16T15:17:05;100449.66;;;14.94;37.62